createdAt,value
2018-11-10T00:01:11.194Z,23.35
2018-11-10T00:03:38.515Z,23.60
2018-11-10T00:06:06.310Z,22.00
2018-11-10T00:08:34.160Z,22.80
2018-11-10T00:11:01.836Z,23.50
2018-11-10T00:13:29.291Z,22.62
2018-11-10T00:15:56.893Z,23.27
2018-11-10T00:18:24.214Z,22.52
2018-11-10T00:20:51.786Z,24.32
2018-11-10T00:23:19.188Z,23.30
2018-11-10T00:25:46.558Z,23.62
2018-11-10T00:28:13.929Z,23.35
2018-11-10T00:30:41.831Z,22.05
2018-11-10T00:33:09.176Z,24.52
2018-11-10T00:35:36.534Z,21.62
2018-11-10T00:38:04.292Z,23.32
2018-11-10T00:40:32.612Z,23.38
2018-11-10T00:43:00.288Z,22.07
2018-11-10T00:45:27.684Z,21.90
2018-11-10T00:47:55.135Z,23.05
2018-11-10T00:50:22.862Z,23.45
2018-11-10T00:52:50.634Z,24.47
2018-11-10T00:55:18.221Z,22.35
2018-11-10T00:57:46.261Z,23.52
2018-11-10T01:00:14.299Z,23.30
2018-11-10T01:02:42.905Z,22.65
2018-11-10T01:05:10.755Z,25.37
2018-11-10T01:07:38.434Z,23.00
2018-11-10T01:10:06.651Z,24.82
2018-11-10T01:12:34.052Z,23.65
2018-11-10T01:15:01.478Z,24.70
2018-11-10T01:17:29.160Z,24.85
2018-11-10T01:19:56.507Z,24.00
2018-11-10T01:22:23.848Z,23.55
2018-11-10T01:24:51.549Z,23.60
2018-11-10T01:27:18.906Z,24.32
2018-11-10T01:29:46.321Z,25.00
2018-11-10T01:32:13.936Z,23.67
2018-11-10T01:34:41.531Z,22.58
2018-11-10T01:37:09.080Z,23.00
2018-11-10T01:39:36.710Z,23.57
2018-11-10T01:42:04.239Z,22.22
2018-11-10T01:44:32.066Z,25.95
2018-11-10T01:46:59.517Z,24.45
2018-11-10T01:49:27.287Z,22.20
2018-11-10T01:51:54.700Z,24.40
2018-11-10T01:54:22.053Z,23.30
2018-11-10T01:56:49.650Z,22.37
2018-11-10T01:59:17.088Z,22.48
2018-11-10T02:01:44.639Z,25.57
2018-11-10T02:04:11.997Z,25.25
2018-11-10T02:06:39.690Z,25.05
2018-11-10T02:09:07.527Z,24.85
2018-11-10T02:11:34.982Z,24.18
2018-11-10T02:14:02.556Z,22.95
2018-11-10T02:16:30.159Z,24.07
2018-11-10T02:18:57.534Z,23.90
2018-11-10T02:21:25.134Z,24.27
2018-11-10T02:23:52.503Z,21.95
2018-11-10T02:26:19.851Z,23.05
2018-11-10T02:28:47.488Z,22.73
2018-11-10T02:31:15.079Z,23.85
2018-11-10T02:33:42.507Z,23.92
2018-11-10T02:36:09.836Z,23.62
2018-11-10T02:38:37.549Z,22.93
2018-11-10T02:41:05.478Z,25.88
2018-11-10T02:43:32.858Z,23.98
2018-11-10T02:46:00.526Z,23.12
2018-11-10T02:48:27.906Z,24.50
2018-11-10T02:50:55.286Z,23.65
2018-11-10T02:53:22.845Z,24.40
2018-11-10T02:55:50.711Z,24.67
2018-11-10T02:58:18.067Z,23.65
2018-11-10T03:00:45.666Z,25.02
2018-11-10T03:03:12.990Z,23.55
2018-11-10T03:05:40.369Z,25.55
2018-11-10T03:08:07.725Z,24.00
2018-11-10T03:10:35.313Z,25.90
2018-11-10T03:13:02.903Z,26.50
2018-11-10T03:15:30.259Z,23.50
2018-11-10T03:17:57.660Z,24.87
2018-11-10T03:20:25.272Z,24.70
2018-11-10T03:22:52.710Z,24.05
2018-11-10T03:25:20.066Z,24.00
2018-11-10T03:27:47.381Z,22.77
2018-11-10T03:30:14.999Z,24.35
2018-11-10T03:32:43.120Z,25.32
2018-11-10T03:35:11.331Z,25.10
2018-11-10T03:37:39.259Z,22.98
2018-11-10T03:40:08.144Z,25.62
2018-11-10T03:42:35.592Z,24.05
2018-11-10T03:45:03.229Z,27.95
2018-11-10T03:47:31.158Z,25.48
2018-11-10T03:49:58.494Z,24.50
2018-11-10T03:52:26.496Z,27.15
2018-11-10T03:54:53.873Z,23.42
2018-11-10T03:57:21.563Z,23.00
2018-11-10T03:59:48.902Z,23.67
2018-11-10T04:02:16.331Z,23.65
2018-11-10T04:04:44.012Z,24.98
2018-11-10T04:07:11.357Z,22.93
2018-11-10T04:09:38.956Z,22.77
2018-11-10T04:12:06.687Z,22.95
2018-11-10T04:14:34.037Z,23.90
2018-11-10T04:17:01.460Z,22.27
2018-11-10T04:19:28.779Z,23.35
2018-11-10T04:21:56.350Z,23.20
2018-11-10T04:24:24.007Z,23.87
2018-11-10T04:26:51.364Z,22.30
2018-11-10T04:29:19.176Z,22.87
2018-11-10T04:31:46.894Z,23.32
2018-11-10T04:34:15.264Z,22.52
2018-11-10T04:36:42.763Z,24.20
2018-11-10T04:39:10.158Z,20.85
2018-11-10T04:41:37.535Z,21.65
2018-11-10T04:44:04.994Z,21.82
2018-11-10T04:46:32.718Z,21.82
2018-11-10T04:49:00.091Z,20.77
2018-11-10T04:51:27.918Z,20.65
2018-11-10T04:53:55.614Z,20.30
2018-11-10T04:56:23.649Z,19.95
2018-11-10T04:58:51.139Z,20.27
2018-11-10T05:01:18.885Z,19.20
2018-11-10T05:03:46.324Z,19.25
2018-11-10T05:06:13.677Z,20.50
2018-11-10T05:08:41.258Z,20.60
2018-11-10T05:11:09.434Z,19.30
2018-11-10T05:13:36.767Z,18.50
2018-11-10T05:16:04.482Z,19.40
2018-11-10T05:18:31.806Z,20.05
2018-11-10T05:20:59.385Z,19.02
2018-11-10T05:23:27.105Z,17.95
2018-11-10T05:25:54.859Z,21.02
2018-11-10T05:28:22.303Z,18.80
2018-11-10T05:30:49.959Z,18.40
2018-11-10T05:33:17.523Z,17.42
2018-11-10T05:35:44.895Z,17.35
2018-11-10T05:38:12.511Z,17.60
2018-11-10T05:40:39.868Z,18.57
2018-11-10T05:43:07.447Z,17.98
2018-11-10T05:45:35.294Z,18.00
2018-11-10T05:48:02.607Z,18.45
2018-11-10T05:50:29.947Z,19.98
2018-11-10T05:52:57.292Z,18.95
2018-11-10T05:55:24.659Z,16.85
2018-11-10T05:57:52.063Z,19.07
2018-11-10T06:00:20.257Z,18.37
2018-11-10T06:02:47.833Z,18.92
2018-11-10T06:05:15.167Z,18.37
2018-11-10T06:07:42.521Z,18.15
2018-11-10T06:10:11.115Z,18.75
2018-11-10T06:12:38.450Z,18.35
2018-11-10T06:15:06.082Z,16.25
2018-11-10T06:17:33.684Z,16.62
2018-11-10T06:20:01.357Z,16.75
2018-11-10T06:22:28.924Z,16.45
2018-11-10T06:24:56.250Z,17.17
2018-11-10T06:27:23.855Z,17.57
2018-11-10T06:29:51.242Z,16.80
2018-11-10T06:32:18.853Z,16.97
2018-11-10T06:34:46.838Z,17.17
2018-11-10T06:37:14.250Z,17.25
2018-11-10T06:39:41.639Z,17.20
2018-11-10T06:42:09.085Z,16.75
2018-11-10T06:44:36.690Z,18.23
2018-11-10T06:47:04.128Z,16.25
2018-11-10T06:49:31.527Z,16.23
2018-11-10T06:51:59.401Z,16.77
2018-11-10T06:54:33.563Z,17.98
2018-11-10T06:57:01.500Z,14.50
2018-11-10T06:59:34.008Z,16.85
2018-11-10T07:02:04.370Z,17.00
2018-11-10T07:04:35.289Z,17.07
2018-11-10T07:07:04.224Z,18.60
2018-11-10T07:09:35.263Z,18.20
2018-11-10T07:12:03.732Z,16.30
2018-11-10T07:14:34.425Z,18.27
2018-11-10T07:17:02.258Z,16.95
2018-11-10T07:19:30.728Z,17.40
2018-11-10T07:21:59.595Z,17.35
2018-11-10T07:24:29.010Z,18.10
2018-11-10T07:26:57.585Z,17.23
2018-11-10T07:29:26.387Z,16.10
2018-11-10T07:31:55.103Z,17.48
2018-11-10T07:34:23.661Z,16.23
2018-11-10T07:36:51.779Z,17.85
2018-11-10T07:39:19.405Z,15.65
2018-11-10T07:41:49.831Z,16.70
2018-11-10T07:44:18.401Z,16.60
2018-11-10T07:46:48.281Z,15.05
2018-11-10T07:49:17.332Z,16.93
2018-11-10T07:51:45.744Z,16.30
2018-11-10T07:54:14.591Z,17.32
2018-11-10T07:56:44.097Z,16.97
2018-11-10T07:59:12.028Z,18.12
2018-11-10T08:01:40.768Z,14.78
2018-11-10T08:04:09.490Z,15.75
2018-11-10T08:06:37.126Z,15.30
2018-11-10T08:09:07.778Z,16.30
2018-11-10T08:11:35.389Z,14.15
2018-11-10T08:14:03.821Z,17.07
2018-11-10T08:16:33.160Z,15.08
2018-11-10T08:19:00.660Z,16.52
2018-11-10T08:21:28.342Z,17.55
2018-11-10T08:23:55.721Z,16.60
2018-11-10T08:26:23.079Z,15.15
2018-11-10T08:28:50.695Z,17.25
2018-11-10T08:31:18.331Z,15.90
2018-11-10T08:33:45.881Z,15.72
2018-11-10T08:36:14.007Z,17.57
2018-11-10T08:38:41.930Z,19.23
2018-11-10T08:41:09.285Z,17.15
2018-11-10T08:43:36.922Z,16.93
2018-11-10T08:46:04.516Z,16.65
2018-11-10T08:48:32.440Z,17.05
2018-11-10T08:51:00.097Z,16.55
2018-11-10T08:53:27.829Z,15.55
2018-11-10T08:55:55.967Z,16.30
2018-11-10T08:58:23.606Z,16.75
2018-11-10T09:00:50.958Z,16.17
2018-11-10T09:03:18.319Z,15.25
2018-11-10T09:05:45.871Z,14.93
2018-11-10T09:08:13.212Z,16.60
2018-11-10T09:10:40.879Z,16.70
2018-11-10T09:13:08.462Z,15.90
2018-11-10T09:15:35.798Z,14.43
2018-11-10T09:18:03.871Z,15.40
2018-11-10T09:20:31.464Z,16.32
2018-11-10T09:22:59.091Z,15.25
2018-11-10T09:25:26.434Z,15.35
2018-11-10T09:27:53.847Z,15.78
2018-11-10T09:30:21.223Z,15.55
2018-11-10T09:35:33.506Z,14.90
2018-11-10T09:38:01.451Z,15.90
2018-11-10T09:40:29.453Z,16.32
2018-11-10T09:42:57.409Z,16.30
2018-11-10T09:45:24.774Z,14.55
2018-11-10T09:47:52.186Z,16.45
2018-11-10T09:50:21.208Z,16.45
2018-11-10T09:52:48.604Z,14.85
2018-11-10T09:55:16.735Z,16.20
2018-11-10T09:57:44.452Z,14.93
2018-11-10T10:00:15.034Z,14.15
2018-11-10T10:02:43.133Z,16.17
2018-11-10T10:05:10.873Z,15.40
2018-11-10T10:07:38.865Z,15.10
2018-11-10T10:10:07.167Z,15.88
2018-11-10T10:12:34.833Z,13.72
2018-11-10T10:15:02.233Z,14.45
2018-11-10T10:17:30.021Z,14.80
2018-11-10T10:19:57.637Z,15.80
2018-11-10T10:22:25.320Z,14.55
2018-11-10T10:24:53.259Z,16.00
2018-11-10T10:27:20.999Z,14.75
2018-11-10T10:29:48.411Z,15.85
2018-11-10T10:32:15.858Z,15.85
2018-11-10T10:34:44.058Z,14.40
2018-11-10T10:37:11.270Z,15.78
2018-11-10T10:39:38.956Z,14.38
2018-11-10T10:42:07.145Z,14.10
2018-11-10T10:44:35.430Z,16.12
2018-11-10T10:47:03.666Z,14.75
2018-11-10T10:49:31.627Z,14.43
2018-11-10T10:52:00.561Z,15.30
2018-11-10T10:54:29.676Z,14.25
2018-11-10T10:56:57.188Z,15.95
2018-11-10T10:59:25.018Z,14.70
2018-11-10T11:01:58.071Z,14.80
2018-11-10T11:04:30.853Z,14.55
2018-11-10T11:06:58.762Z,15.68
2018-11-10T11:09:26.480Z,14.83
2018-11-10T11:11:54.049Z,14.80
2018-11-10T11:14:21.717Z,14.73
2018-11-10T11:16:49.071Z,14.93
2018-11-10T11:19:16.784Z,15.25
2018-11-10T11:21:44.528Z,15.85
2018-11-10T11:24:12.150Z,14.80
2018-11-10T11:26:39.722Z,16.15
2018-11-10T11:29:07.226Z,15.72
2018-11-10T11:31:34.701Z,15.28
2018-11-10T11:34:02.135Z,15.15
2018-11-10T11:36:29.561Z,16.48
2018-11-10T11:38:57.036Z,15.18
2018-11-10T11:41:24.481Z,14.95
2018-11-10T11:43:52.371Z,16.42
2018-11-10T11:46:19.946Z,16.12
2018-11-10T11:48:47.410Z,16.30
2018-11-10T11:51:14.803Z,15.93
2018-11-10T11:53:42.493Z,18.15
2018-11-10T11:56:10.596Z,14.68
2018-11-10T11:58:38.257Z,16.80
2018-11-10T12:01:06.090Z,16.32
2018-11-10T12:03:33.890Z,16.05
2018-11-10T12:06:01.698Z,15.28
2018-11-10T12:08:29.055Z,17.20
2018-11-10T12:10:56.519Z,16.05
2018-11-10T12:13:24.124Z,15.78
2018-11-10T12:15:51.724Z,14.35
2018-11-10T12:18:19.282Z,14.80
2018-11-10T12:20:46.805Z,15.65
2018-11-10T12:23:14.193Z,15.38
2018-11-10T12:25:41.554Z,15.03
2018-11-10T12:28:08.951Z,16.15
2018-11-10T12:30:36.343Z,13.50
2018-11-10T12:33:04.027Z,15.30
2018-11-10T12:35:31.407Z,15.10
2018-11-10T12:37:58.724Z,16.45
2018-11-10T12:40:26.091Z,14.58
2018-11-10T12:42:53.945Z,13.50
2018-11-10T12:45:21.299Z,15.10
2018-11-10T12:47:48.918Z,15.32
2018-11-10T12:50:16.330Z,15.40
2018-11-10T12:52:44.794Z,15.65
2018-11-10T12:55:13.501Z,15.18
2018-11-10T12:57:41.644Z,14.68
2018-11-10T13:00:09.727Z,15.38
2018-11-10T13:02:37.219Z,15.65
2018-11-10T13:05:05.746Z,14.75
2018-11-10T13:07:33.249Z,14.90
2018-11-10T13:10:00.710Z,15.75
2018-11-10T13:12:29.012Z,16.65
2018-11-10T13:14:56.419Z,15.10
2018-11-10T13:17:24.106Z,17.17
2018-11-10T13:19:51.525Z,15.53
2018-11-10T13:22:19.584Z,16.48
2018-11-10T13:24:47.254Z,16.45
2018-11-10T13:27:14.870Z,15.28
2018-11-10T13:29:42.354Z,15.50
2018-11-10T13:32:09.914Z,16.62
2018-11-10T13:34:37.293Z,13.60
2018-11-10T13:37:05.156Z,14.20
2018-11-10T13:39:32.551Z,16.10
2018-11-10T13:41:59.927Z,15.23
2018-11-10T13:44:27.433Z,15.58
2018-11-10T13:46:54.961Z,14.53
2018-11-10T13:49:22.823Z,14.85
2018-11-10T13:51:50.737Z,15.23
2018-11-10T13:54:18.349Z,14.60
2018-11-10T13:56:46.217Z,14.35
2018-11-10T13:59:13.589Z,16.17
2018-11-10T14:01:41.182Z,15.15
2018-11-10T14:04:08.530Z,15.18
2018-11-10T14:06:36.160Z,14.38
2018-11-10T14:09:04.498Z,15.55
2018-11-10T14:11:32.056Z,15.15
2018-11-10T14:13:59.647Z,15.45
2018-11-10T14:16:27.243Z,15.98
2018-11-10T14:18:54.780Z,14.73
2018-11-10T14:21:22.327Z,15.15
2018-11-10T14:23:50.221Z,15.88
2018-11-10T14:26:18.172Z,14.18
2018-11-10T14:28:45.897Z,15.08
2018-11-10T14:31:13.230Z,14.93
2018-11-10T14:33:40.878Z,14.75
2018-11-10T14:36:08.509Z,14.73
2018-11-10T14:38:35.921Z,14.43
2018-11-10T14:41:03.853Z,15.30
2018-11-10T14:43:31.658Z,16.35
2018-11-10T14:45:59.264Z,13.60
2018-11-10T14:48:26.625Z,14.70
2018-11-10T14:50:54.002Z,14.63
2018-11-10T14:53:22.273Z,13.70
2018-11-10T14:55:49.927Z,15.25
2018-11-10T14:58:17.350Z,14.55
2018-11-10T15:00:44.800Z,12.75
2018-11-10T15:03:12.779Z,13.85
2018-11-10T15:05:40.510Z,14.10
2018-11-10T15:08:07.817Z,14.40
2018-11-10T15:10:35.181Z,13.72
2018-11-10T15:13:02.538Z,12.78
2018-11-10T15:15:29.861Z,13.98
2018-11-10T15:17:58.177Z,14.28
2018-11-10T15:20:25.557Z,13.53
2018-11-10T15:22:53.382Z,15.68
2018-11-10T15:25:21.908Z,14.43
2018-11-10T15:27:49.540Z,13.18
2018-11-10T15:30:19.083Z,14.13
2018-11-10T15:32:47.908Z,15.23
2018-11-10T15:35:16.659Z,15.25
2018-11-10T15:37:45.770Z,15.80
2018-11-10T15:40:14.926Z,15.30
2018-11-10T15:42:42.612Z,15.35
2018-11-10T15:45:11.202Z,14.03
2018-11-10T15:47:38.799Z,14.80
2018-11-10T15:50:07.049Z,14.65
2018-11-10T15:52:34.539Z,14.40
2018-11-10T15:55:01.886Z,14.47
2018-11-10T15:57:29.868Z,14.95
2018-11-10T15:59:57.184Z,14.05
2018-11-10T16:02:24.719Z,14.28
2018-11-10T16:04:52.130Z,14.40
2018-11-10T16:07:19.635Z,14.30
2018-11-10T16:09:47.022Z,13.10
2018-11-10T16:12:14.423Z,15.58
2018-11-10T16:14:41.999Z,14.10
2018-11-10T16:17:09.689Z,14.30
2018-11-10T16:19:37.057Z,14.18
2018-11-10T16:22:04.823Z,15.58
2018-11-10T16:24:32.183Z,15.28
2018-11-10T16:26:59.597Z,15.08
2018-11-10T16:29:27.043Z,14.25
2018-11-10T16:31:54.409Z,14.93
2018-11-10T16:34:22.302Z,16.32
2018-11-10T16:36:50.029Z,14.30
2018-11-10T16:39:17.875Z,15.80
2018-11-10T16:41:45.221Z,14.33
2018-11-10T16:44:12.867Z,15.48
2018-11-10T16:46:40.202Z,15.28
2018-11-10T16:49:07.793Z,14.40
2018-11-10T16:51:35.526Z,16.10
2018-11-10T16:54:02.854Z,15.20
2018-11-10T16:56:30.212Z,15.35
2018-11-10T16:58:57.849Z,16.23
2018-11-10T17:01:25.442Z,14.45
2018-11-10T17:03:53.023Z,15.30
2018-11-10T17:06:20.364Z,15.03
2018-11-10T17:08:47.801Z,16.00
2018-11-10T17:11:15.075Z,15.23
2018-11-10T17:13:43.242Z,14.25
2018-11-10T17:16:10.868Z,16.05
2018-11-10T17:18:38.584Z,13.93
2018-11-10T17:21:06.136Z,14.23
2018-11-10T17:23:33.824Z,14.30
2018-11-10T17:26:01.159Z,13.90
2018-11-10T17:28:28.550Z,14.28
2018-11-10T17:30:55.949Z,15.28
2018-11-10T17:33:23.390Z,16.15
2018-11-10T17:35:50.771Z,13.03
2018-11-10T17:38:18.353Z,15.30
2018-11-10T17:40:45.674Z,16.17
2018-11-10T17:43:13.009Z,16.45
2018-11-10T17:45:40.597Z,15.08
2018-11-10T17:48:08.223Z,14.65
2018-11-10T17:50:35.543Z,14.95
2018-11-10T17:53:03.100Z,16.93
2018-11-10T17:55:30.923Z,14.33
2018-11-10T17:57:58.545Z,15.85
2018-11-10T18:00:25.914Z,15.05
2018-11-10T18:02:53.255Z,14.10
2018-11-10T18:05:20.722Z,14.30
2018-11-10T18:07:48.512Z,15.38
2018-11-10T18:10:17.180Z,15.25
2018-11-10T18:12:45.061Z,16.02
2018-11-10T18:15:12.832Z,15.20
2018-11-10T18:17:40.913Z,13.13
2018-11-10T18:20:09.071Z,13.88
2018-11-10T18:22:36.779Z,14.75
2018-11-10T18:25:04.257Z,14.70
2018-11-10T18:27:31.966Z,14.78
2018-11-10T18:29:59.574Z,16.40
2018-11-10T18:32:26.991Z,13.72
2018-11-10T18:34:54.380Z,15.18
2018-11-10T18:37:21.755Z,15.00
2018-11-10T18:39:49.381Z,15.25
2018-11-10T18:42:16.751Z,13.90
2018-11-10T18:44:44.106Z,15.20
2018-11-10T18:47:11.579Z,15.08
2018-11-10T18:49:39.143Z,14.33
2018-11-10T18:52:06.955Z,16.82
2018-11-10T18:54:34.475Z,15.45
2018-11-10T18:57:02.838Z,16.45
2018-11-10T18:59:30.722Z,14.33
2018-11-10T19:01:58.281Z,14.83
2018-11-10T19:04:25.653Z,14.75
2018-11-10T19:06:53.051Z,15.50
2018-11-10T19:09:20.383Z,15.83
2018-11-10T19:11:48.348Z,13.75
2018-11-10T19:14:15.893Z,15.40
2018-11-10T19:16:43.294Z,17.27
2018-11-10T19:19:10.725Z,14.60
2018-11-10T19:21:40.290Z,17.70
2018-11-10T19:24:07.727Z,15.30
2018-11-10T19:26:35.196Z,14.60
2018-11-10T19:29:02.688Z,14.45
2018-11-10T19:31:30.688Z,14.53
2018-11-10T19:33:59.118Z,14.85
2018-11-10T19:36:27.514Z,14.43
2018-11-10T19:38:55.448Z,14.93
2018-11-10T19:41:22.997Z,16.12
2018-11-10T19:43:50.305Z,14.58
2018-11-10T19:46:17.586Z,14.63
2018-11-10T19:48:45.863Z,15.72
2018-11-10T19:51:15.058Z,15.63
2018-11-10T19:53:43.148Z,15.80
2018-11-10T19:56:11.434Z,14.55
2018-11-10T19:58:38.803Z,14.50
2018-11-10T20:01:06.621Z,14.28
2018-11-10T20:03:34.124Z,15.65
2018-11-10T20:06:01.555Z,14.73
2018-11-10T20:08:29.127Z,15.40
2018-11-10T20:10:56.801Z,14.50
2018-11-10T20:13:24.338Z,16.35
2018-11-10T20:15:52.951Z,15.23
2018-11-10T20:18:20.689Z,17.17
2018-11-10T20:20:48.228Z,13.83
2018-11-10T20:23:15.769Z,14.65
2018-11-10T20:25:43.071Z,15.83
2018-11-10T20:28:10.440Z,15.93
2018-11-10T20:30:38.051Z,14.43
2018-11-10T20:33:05.871Z,15.23
2018-11-10T20:35:36.333Z,14.65
2018-11-10T20:38:05.661Z,16.42
2018-11-10T20:40:33.390Z,14.75
2018-11-10T20:43:01.362Z,14.45
2018-11-10T20:45:28.987Z,14.47
2018-11-10T20:47:56.790Z,14.43
2018-11-10T20:50:25.060Z,14.15
2018-11-10T20:52:53.550Z,14.75
2018-11-10T20:55:21.131Z,14.95
2018-11-10T20:57:51.468Z,15.48
2018-11-10T21:00:24.317Z,14.35
2018-11-10T21:02:55.202Z,15.28
2018-11-10T21:05:25.645Z,15.72
2018-11-10T21:07:55.730Z,14.25
2018-11-10T21:10:30.319Z,13.75
2018-11-10T21:13:01.651Z,15.38
2018-11-10T21:15:31.398Z,15.55
2018-11-10T21:18:02.573Z,16.00
2018-11-10T21:20:33.799Z,14.75
2018-11-10T21:23:06.344Z,14.47
2018-11-10T21:25:34.581Z,14.83
2018-11-10T21:28:10.268Z,16.02
2018-11-10T21:30:44.486Z,14.07
2018-11-10T21:33:14.160Z,14.50
2018-11-10T21:35:44.171Z,13.98
2018-11-10T21:38:14.515Z,14.70
2018-11-10T21:40:44.441Z,14.83
2018-11-10T21:43:14.787Z,14.03
2018-11-10T21:45:44.796Z,14.75
2018-11-10T21:48:17.552Z,16.07
2018-11-10T21:50:49.276Z,15.28
2018-11-10T21:53:18.578Z,13.98
2018-11-10T21:55:46.922Z,14.00
2018-11-10T21:58:16.477Z,14.58
2018-11-10T22:00:46.069Z,14.83
2018-11-10T22:03:16.172Z,14.13
2018-11-10T22:05:45.717Z,14.40
2018-11-10T22:08:16.767Z,16.00
2018-11-10T22:10:49.144Z,14.38
2018-11-10T22:13:17.590Z,16.35
2018-11-10T22:15:56.833Z,14.28
2018-11-10T22:18:33.006Z,14.05
2018-11-10T22:21:02.860Z,15.35
2018-11-10T22:23:35.842Z,15.60
2018-11-10T22:26:08.365Z,14.38
2018-11-10T22:28:36.095Z,15.75
2018-11-10T22:31:04.689Z,13.62
2018-11-10T22:33:32.765Z,13.83
2018-11-10T22:36:02.097Z,13.72
2018-11-10T22:38:30.716Z,13.65
2018-11-10T22:40:58.456Z,13.50
2018-11-10T22:43:27.072Z,14.60
2018-11-10T22:45:54.656Z,15.68
2018-11-10T22:48:23.662Z,15.00
2018-11-10T22:50:51.933Z,15.35
2018-11-10T22:53:20.305Z,16.02
2018-11-10T22:55:47.991Z,16.20
2018-11-10T22:58:15.743Z,14.28
2018-11-10T23:00:49.138Z,14.75
2018-11-10T23:03:18.063Z,16.82
2018-11-10T23:05:48.676Z,14.78
2018-11-10T23:08:16.726Z,15.18
2018-11-10T23:10:45.612Z,15.48
2018-11-10T23:13:14.141Z,15.40
2018-11-10T23:15:42.785Z,16.57
2018-11-10T23:18:12.190Z,15.98
2018-11-10T23:20:40.260Z,16.97
2018-11-10T23:23:09.935Z,16.15
2018-11-10T23:25:37.255Z,15.70
2018-11-10T23:28:04.744Z,16.17
2018-11-10T23:30:33.008Z,15.23
2018-11-10T23:33:02.062Z,16.42
2018-11-10T23:35:30.800Z,15.20
2018-11-10T23:38:00.150Z,17.42
2018-11-10T23:40:28.787Z,16.42
2018-11-10T23:42:57.246Z,16.57
2018-11-10T23:45:24.779Z,17.55
2018-11-10T23:47:53.089Z,16.73
2018-11-10T23:50:20.950Z,16.20
2018-11-10T23:52:49.395Z,16.70
2018-11-10T23:55:18.084Z,16.30
2018-11-10T23:57:47.320Z,16.60
